Time;durP1;ratioP1;P1;durP2;ratioP2;P2;SDS_P1;SDS_P2;PMS_P1;PMS_P2;Temp;Humidity;BMP_temperature;BMP_pressure;BME280_temperature;BME280_humidity;BME280_pressure;Samples;Min_cycle;Max_cycle;Signal;HPM_P1;HPM_P2
2023/06/19 04:50:00;;;;;;;;;10.67;10.67;;;;;23.25;57.62;100999.22;5057800;27;45761;-68
2023/06/19 04:52:26;;;;;;;;;8.00;7.67;;;;;23.40;57.75;100991.41;5045894;28;45523;-70
2023/06/19 04:54:51;;;;;;;;;8.00;8.00;;;;;23.58;57.27;100998.59;5049945;28;46919;-69
2023/06/19 04:57:16;;;;;;;;;8.33;8.33;;;;;23.79;57.14;101009.84;5048638;28;45628;-69
2023/06/19 04:59:43;;;;;;;;;8.00;8.00;;;;;23.98;57.01;101005.16;5048329;28;45487;-68
2023/06/19 05:02:09;;;;;;;;;12.00;9.67;;;;;24.16;56.68;101004.22;5047077;28;45674;-71
2023/06/19 05:04:35;;;;;;;;;10.67;8.00;;;;;24.31;56.44;101002.56;5047099;28;45428;-71
2023/06/19 05:07:01;;;;;;;;;11.67;9.33;;;;;24.47;55.95;101003.59;5044199;28;45570;-70
2023/06/19 05:09:27;;;;;;;;;9.67;9.67;;;;;24.60;55.47;101000.34;5046320;28;45985;-72
2023/06/19 05:11:52;;;;;;;;;12.00;11.00;;;;;24.72;55.48;100998.16;5042025;28;45500;-70
2023/06/19 05:14:17;;;;;;;;;10.00;8.00;;;;;24.82;54.85;100993.41;5047635;28;45767;-69
2023/06/19 05:16:43;;;;;;;;;11.00;9.00;;;;;24.91;54.50;100991.56;5045743;28;45457;-70
2023/06/19 05:19:08;;;;;;;;;10.67;9.67;;;;;25.00;54.46;100993.25;5042192;28;46933;-69
2023/06/19 05:21:34;;;;;;;;;8.33;8.33;;;;;25.07;54.41;101003.41;5046080;28;45462;-68
2023/06/19 05:23:59;;;;;;;;;9.67;9.00;;;;;25.16;54.01;101006.94;5047061;28;45491;-67
2023/06/19 05:26:26;;;;;;;;;8.00;7.33;;;;;25.23;54.24;101003.38;5044399;28;45807;-69
2023/06/19 05:28:51;;;;;;;;;11.33;11.00;;;;;25.30;54.11;101011.66;5049050;27;46822;-71
2023/06/19 05:31:18;;;;;;;;;8.33;6.67;;;;;25.38;53.95;101010.81;5043011;28;45486;-70
2023/06/19 05:33:43;;;;;;;;;9.33;9.33;;;;;25.40;53.31;101014.19;5039134;28;45506;-70
2023/06/19 05:36:09;;;;;;;;;8.67;8.67;;;;;25.47;53.82;101019.78;5041587;28;45885;-69
2023/06/19 05:38:34;;;;;;;;;8.67;8.67;;;;;25.51;53.37;101004.81;5044082;28;47197;-70
2023/06/19 05:41:00;;;;;;;;;10.00;10.00;;;;;25.54;53.33;100999.03;5039569;28;54292;-70
2023/06/19 05:43:26;;;;;;;;;12.67;11.00;;;;;25.56;52.98;100999.75;5034382;28;45479;-70
2023/06/19 05:45:53;;;;;;;;;12.00;9.33;;;;;25.61;53.02;100991.03;5037312;28;45601;-70
2023/06/19 05:48:18;;;;;;;;;11.00;11.00;;;;;25.62;52.63;100988.16;5045643;28;47283;-70
2023/06/19 05:50:44;;;;;;;;;9.00;7.67;;;;;25.65;53.03;100990.53;5059005;28;45526;-70
2023/06/19 05:53:09;;;;;;;;;12.33;10.33;;;;;25.70;52.39;101002.75;5079973;27;46031;-71
2023/06/19 05:55:34;;;;;;;;;10.00;8.00;;;;;25.73;52.83;100999.66;5058750;28;45486;-71
2023/06/19 05:58:00;;;;;;;;;9.00;9.00;;;;;25.75;52.45;101011.22;5058333;27;45473;-70
2023/06/19 06:00:26;;;;;;;;;10.67;9.67;;;;;25.78;52.69;101008.13;5049502;28;45869;-70
2023/06/19 06:02:51;;;;;;;;;7.00;5.67;;;;;25.79;52.11;101004.41;5040168;28;45792;-70
2023/06/19 06:05:18;;;;;;;;;10.00;10.00;;;;;25.82;52.80;101008.63;5047612;28;45488;-71
2023/06/19 06:07:44;;;;;;;;;10.33;8.00;;;;;25.84;52.47;101010.16;5051779;28;47071;-71
2023/06/19 06:10:10;;;;;;;;;10.00;10.00;;;;;25.86;52.26;101007.22;5048117;28;46166;-70
2023/06/19 06:12:35;;;;;;;;;8.00;8.00;;;;;25.87;51.98;101003.50;5053866;28;45361;-70
2023/06/19 06:15:02;;;;;;;;;12.00;12.00;;;;;25.87;52.29;100996.19;5058439;28;45342;-72
2023/06/19 06:17:28;;;;;;;;;20.00;15.67;;;;;25.86;51.74;101007.22;5048474;28;46116;-72
2023/06/19 06:19:53;;;;;;;;;16.00;14.00;;;;;25.84;52.10;101010.16;5046541;28;45564;-73
2023/06/19 06:22:18;;;;;;;;;10.67;8.67;;;;;25.86;51.88;101012.66;5041374;28;48931;-73
2023/06/19 06:24:44;;;;;;;;;14.00;11.33;;;;;25.89;51.66;101023.19;5036837;28;45639;-72
2023/06/19 06:27:09;;;;;;;;;8.00;8.00;;;;;25.92;51.75;101031.00;5052909;28;45538;-73
2023/06/19 06:29:36;;;;;;;;;12.00;10.33;;;;;25.93;52.15;101032.69;5054457;28;45393;-72
2023/06/19 06:32:07;;;;;;;;;9.00;9.00;;;;;25.99;51.80;101026.53;5053785;28;45512;-72
2023/06/19 06:34:33;;;;;;;;;8.33;7.67;;;;;26.03;51.65;101040.63;5054524;28;45597;-70
2023/06/19 06:36:59;;;;;;;;;13.00;12.00;;;;;25.96;50.96;101047.81;5042687;28;45694;-74
2023/06/19 06:39:24;;;;;;;;;11.33;11.33;;;;;25.82;52.16;101052.97;5054096;28;45494;-74
2023/06/19 06:41:50;;;;;;;;;13.00;13.00;;;;;25.68;52.15;101050.97;5054698;28;45471;-74
2023/06/19 06:44:15;;;;;;;;;14.00;13.67;;;;;25.55;52.11;101043.34;5053395;28;45416;-74
2023/06/19 06:46:40;;;;;;;;;15.33;13.67;;;;;25.46;52.01;101039.84;5054032;28;45423;-74
2023/06/19 06:49:06;;;;;;;;;18.67;18.67;;;;;25.33;52.61;101040.34;5054215;28;45531;-73
2023/06/19 06:51:31;;;;;;;;;19.33;16.00;;;;;25.18;52.30;101037.50;5054328;28;45764;-74
2023/06/19 06:53:56;;;;;;;;;18.00;17.00;;;;;25.03;52.34;101035.50;5054502;28;45918;-74
2023/06/19 06:56:22;;;;;;;;;14.00;14.00;;;;;24.95;52.62;101033.66;5053302;28;55466;-74
2023/06/19 06:58:47;;;;;;;;;15.00;14.33;;;;;24.83;52.83;101038.56;5054418;28;45494;-73
2023/06/19 07:01:12;;;;;;;;;13.67;13.00;;;;;24.74;52.71;101043.09;5053097;28;45510;-74
2023/06/19 07:03:39;;;;;;;;;17.67;16.00;;;;;24.65;53.15;101040.56;5055182;28;45337;-74
2023/06/19 07:06:04;;;;;;;;;18.33;17.67;;;;;24.60;53.75;101046.50;5050551;28;47137;-74
2023/06/19 07:08:30;;;;;;;;;15.67;15.67;;;;;24.53;53.94;101040.91;5053584;28;45480;-73
2023/06/19 07:10:55;;;;;;;;;15.67;14.33;;;;;24.50;54.34;101040.38;5049150;28;45776;-74
2023/06/19 07:13:20;;;;;;;;;19.00;19.00;;;;;24.50;54.71;101043.94;5053401;28;45460;-73
2023/06/19 07:15:45;;;;;;;;;16.33;16.33;;;;;24.51;54.30;101040.22;5053575;28;58644;-73
2023/06/19 07:18:11;;;;;;;;;16.33;15.00;;;;;24.50;54.34;101043.09;5053448;28;45420;-73
2023/06/19 07:20:36;;;;;;;;;16.33;16.00;;;;;24.45;54.08;101049.88;5053695;28;45545;-73
2023/06/19 07:23:01;;;;;;;;;16.67;16.67;;;;;24.43;54.27;101045.63;5051664;28;52495;-73
2023/06/19 07:25:27;;;;;;;;;15.00;14.00;;;;;24.39;54.05;101045.13;5054143;28;45378;-74
2023/06/19 07:27:52;;;;;;;;;18.33;16.67;;;;;24.36;54.86;101044.63;5046407;28;45482;-73
2023/06/19 07:30:17;;;;;;;;;17.33;16.33;;;;;24.32;55.25;101038.69;5040904;28;45373;-73
2023/06/19 07:32:43;;;;;;;;;22.67;20.00;;;;;24.29;54.21;101039.88;5055166;28;45651;-73
2023/06/19 07:35:09;;;;;;;;;23.00;20.67;;;;;24.24;54.31;101033.22;5034645;28;46876;-73
2023/06/19 07:37:34;;;;;;;;;21.00;20.00;;;;;24.24;54.63;101036.81;5052401;28;45492;-74
2023/06/19 07:39:59;;;;;;;;;17.33;17.00;;;;;24.24;54.80;101042.22;5053067;28;45719;-73
2023/06/19 07:42:26;;;;;;;;;12.33;11.00;;;;;24.25;55.38;101029.50;5052352;28;45467;-73
2023/06/19 07:44:51;;;;;;;;;17.33;16.67;;;;;24.26;55.91;101029.34;5033772;28;46361;-73
2023/06/19 07:47:20;;;;;;;;;18.00;18.00;;;;;24.28;56.25;101032.72;5053478;28;45571;-73
2023/06/19 07:49:46;;;;;;;;;19.00;17.33;;;;;24.28;55.88;101031.88;5043768;28;45457;-73
2023/06/19 07:52:12;;;;;;;;;19.33;17.00;;;;;24.34;55.80;101044.78;5052625;28;45391;-73
2023/06/19 07:54:51;;;;;;;;;21.00;19.00;;;;;24.36;55.60;101036.47;5052408;28;45378;-73
2023/06/19 07:57:16;;;;;;;;;18.67;17.00;;;;;24.34;55.98;101047.47;5053973;28;45630;-73
2023/06/19 07:59:42;;;;;;;;;20.67;19.33;;;;;24.35;55.81;101049.19;5052911;28;45519;-74
2023/06/19 08:02:07;;;;;;;;;19.33;16.33;;;;;24.34;55.69;101047.47;5051762;28;45505;-73
2023/06/19 08:04:32;;;;;;;;;18.00;18.00;;;;;24.39;55.98;101049.72;5054365;28;45517;-75
2023/06/19 08:06:57;;;;;;;;;17.67;17.33;;;;;24.40;56.27;101046.81;5039062;28;56630;-74
2023/06/19 08:09:23;;;;;;;;;20.33;18.00;;;;;24.43;56.31;101045.63;5053245;28;54600;-73
2023/06/19 08:11:48;;;;;;;;;18.33;16.00;;;;;24.43;55.97;101040.19;5039713;28;45325;-73
2023/06/19 08:14:13;;;;;;;;;17.67;17.67;;;;;24.48;56.17;101040.53;5054315;28;59324;-73
2023/06/19 08:16:39;;;;;;;;;20.00;16.00;;;;;24.51;56.49;101032.06;5039757;28;45540;-71
2023/06/19 08:19:04;;;;;;;;;16.00;16.00;;;;;24.60;56.04;101027.50;5053779;28;45388;-70
2023/06/19 08:21:29;;;;;;;;;15.67;15.33;;;;;24.61;56.24;101026.50;5052439;28;45424;-72
2023/06/19 08:23:55;;;;;;;;;17.67;16.33;;;;;24.69;55.65;101026.47;5054147;28;47972;-73
2023/06/19 08:26:20;;;;;;;;;14.67;14.67;;;;;24.80;55.58;101029.91;5042961;28;45684;-72
2023/06/19 08:28:46;;;;;;;;;13.00;13.00;;;;;24.88;55.28;101029.91;5052821;28;45503;-73
2023/06/19 08:31:11;;;;;;;;;14.33;13.00;;;;;24.94;55.47;101034.66;5052670;28;45557;-73
2023/06/19 08:33:36;;;;;;;;;15.00;13.33;;;;;25.03;55.41;101034.63;5052478;28;46067;-73
2023/06/19 08:36:02;;;;;;;;;14.33;14.33;;;;;25.10;55.13;101038.38;5051024;28;49135;-73
2023/06/19 08:38:27;;;;;;;;;14.67;13.00;;;;;25.13;54.59;101029.88;5047627;28;45399;-72
2023/06/19 08:40:55;;;;;;;;;14.00;14.00;;;;;25.19;54.72;101028.34;5042277;28;45686;-72
2023/06/19 08:43:20;;;;;;;;;12.00;12.00;;;;;25.29;54.41;101030.88;5053594;28;46219;-72
2023/06/19 08:46:08;;;;;;;;;14.00;14.00;;;;;25.36;54.40;101031.88;5051819;28;45440;-72
2023/06/19 08:48:36;;;;;;;;;14.00;14.00;;;;;25.31;54.05;101012.53;5046431;28;45436;-73
2023/06/19 08:51:04;;;;;;;;;14.00;14.00;;;;;25.45;54.49;101036.25;5050793;28;45403;-72
2023/06/19 08:53:35;;;;;;;;;13.00;13.00;;;;;25.48;54.21;101032.34;5052123;28;45464;-72
2023/06/19 08:56:00;;;;;;;;;12.33;11.33;;;;;25.48;53.65;101025.03;5052900;28;45436;-72
2023/06/19 08:58:26;;;;;;;;;14.33;12.67;;;;;25.53;54.06;101022.66;5047776;28;45533;-73
2023/06/19 09:00:51;;;;;;;;;10.67;10.67;;;;;25.59;53.69;101020.28;5050197;28;45638;-73
2023/06/19 09:03:23;;;;;;;;;10.33;9.33;;;;;25.62;53.64;101026.19;5049757;28;45417;-73
2023/06/19 09:05:51;;;;;;;;;13.00;13.00;;;;;25.67;53.66;101031.13;5052007;28;45468;-73
2023/06/19 09:08:18;;;;;;;;;11.67;11.33;;;;;25.70;53.37;101025.31;5042271;28;45277;-71
2023/06/19 09:10:55;;;;;;;;;12.33;12.33;;;;;25.72;53.17;101027.88;5034268;28;45479;-72
2023/06/19 09:13:20;;;;;;;;;13.67;12.33;;;;;25.76;53.34;101030.03;5046459;28;45721;-73
2023/06/19 09:15:46;;;;;;;;;12.67;12.67;;;;;25.81;53.27;101026.81;5052335;28;45471;-72
2023/06/19 09:18:12;;;;;;;;;12.33;11.33;;;;;25.83;52.76;101021.19;5055560;28;45517;-73
2023/06/19 09:20:43;;;;;;;;;13.00;12.33;;;;;25.85;53.25;101014.56;5051362;28;45516;-73
2023/06/19 09:23:09;;;;;;;;;11.00;11.00;;;;;25.84;62.57;101012.88;5047873;28;46004;-74
2023/06/19 09:25:48;;;;;;;;;12.00;12.00;;;;;25.88;61.46;101014.19;5045046;28;45706;-74
2023/06/19 09:28:26;;;;;;;;;11.00;10.00;;;;;25.89;59.71;101017.75;5041343;28;45383;-73
2023/06/19 09:31:02;;;;;;;;;10.67;10.67;;;;;25.95;55.66;101024.38;5050398;28;45737;-73
2023/06/19 09:33:29;;;;;;;;;12.33;10.67;;;;;25.98;53.48;101018.56;5050765;28;45716;-73
2023/06/19 09:35:56;;;;;;;;;10.67;10.67;;;;;25.99;53.16;101020.28;5064235;27;45443;-73
2023/06/19 09:38:33;;;;;;;;;12.00;12.00;;;;;26.01;52.56;101005.47;5054380;28;45408;-73
2023/06/19 09:41:04;;;;;;;;;12.00;12.00;;;;;26.02;52.94;101009.88;5037690;28;46022;-74
2023/06/19 09:43:46;;;;;;;;;10.67;10.00;;;;;26.07;52.25;101005.78;5048862;28;46594;-74
2023/06/19 09:46:13;;;;;;;;;14.67;11.33;;;;;26.09;52.41;101004.56;5052405;28;45388;-73
2023/06/19 09:48:44;;;;;;;;;10.67;10.67;;;;;26.11;52.21;100998.94;5054714;28;45392;-73
2023/06/19 09:51:12;;;;;;;;;11.00;11.00;;;;;26.12;52.26;101004.19;5056064;28;45550;-73
2023/06/19 09:53:38;;;;;;;;;13.67;12.33;;;;;26.13;52.13;100996.88;5055479;28;46326;-73
2023/06/19 09:56:03;;;;;;;;;10.33;10.33;;;;;26.16;52.26;101000.09;5054596;28;45471;-73
2023/06/19 09:58:30;;;;;;;;;12.33;12.00;;;;;26.17;51.83;101007.22;5036701;28;45465;-74
2023/06/19 10:00:56;;;;;;;;;13.00;13.00;;;;;26.20;51.56;101003.31;5060478;28;45474;-73
2023/06/19 10:03:31;;;;;;;;;11.00;10.00;;;;;26.24;51.78;101007.34;5054638;28;45405;-72
2023/06/19 10:06:01;;;;;;;;;11.00;10.67;;;;;26.27;52.25;101008.88;5042071;28;45652;-73
2023/06/19 10:08:43;;;;;;;;;11.00;11.00;;;;;26.28;51.73;100999.72;5067851;28;45494;-73
2023/06/19 10:11:10;;;;;;;;;11.00;10.00;;;;;26.29;52.08;101001.41;5045178;28;45471;-72
2023/06/19 10:13:40;;;;;;;;;12.67;11.00;;;;;26.29;51.80;100993.25;5037208;28;46284;-74
2023/06/19 10:16:06;;;;;;;;;12.00;12.00;;;;;26.29;51.44;100995.97;5054791;28;45487;-73
2023/06/19 10:18:33;;;;;;;;;12.67;11.33;;;;;26.28;51.33;100989.66;5054027;28;45436;-74
2023/06/19 10:20:58;;;;;;;;;13.33;11.33;;;;;26.23;51.83;100978.44;5055741;28;45315;-73
2023/06/19 10:23:27;;;;;;;;;10.00;10.00;;;;;26.27;51.39;100974.38;5054249;28;45348;-73
2023/06/19 10:25:52;;;;;;;;;9.33;8.33;;;;;26.27;51.56;100981.69;5055491;28;45447;-73
2023/06/19 10:28:29;;;;;;;;;10.00;9.67;;;;;26.26;51.38;100986.28;5051658;28;45398;-73
2023/06/19 10:31:05;;;;;;;;;12.00;11.00;;;;;26.27;51.65;100966.22;5045830;28;45523;-73
2023/06/19 10:33:33;;;;;;;;;11.33;11.33;;;;;26.29;51.33;100966.03;5054431;28;45529;-74
2023/06/19 10:36:02;;;;;;;;;8.00;8.00;;;;;26.29;51.49;100968.75;5036524;28;45467;-76
2023/06/19 10:38:28;;;;;;;;;9.33;9.33;;;;;26.29;51.78;100983.19;5036386;28;45486;-74
2023/06/19 10:40:53;;;;;;;;;9.67;9.67;;;;;26.30;51.71;100981.31;5051074;28;45424;-73
2023/06/19 10:43:21;;;;;;;;;11.00;11.00;;;;;26.28;51.43;100965.19;5053474;28;45458;-73
2023/06/19 10:45:47;;;;;;;;;12.00;12.00;;;;;26.33;51.37;100963.78;5054131;28;45455;-74
2023/06/19 10:48:19;;;;;;;;;11.33;11.00;;;;;26.40;51.38;100962.88;5053952;28;45436;-73
2023/06/19 10:50:44;;;;;;;;;10.00;9.00;;;;;26.40;51.18;100960.16;5053186;28;45468;-75
2023/06/19 10:53:09;;;;;;;;;9.67;9.67;;;;;26.47;50.99;100959.41;5054204;28;46141;-77
2023/06/19 10:55:35;;;;;;;;;14.00;13.67;;;;;26.48;50.51;100947.53;5053831;28;45504;-76
2023/06/19 10:58:00;;;;;;;;;10.67;10.67;;;;;26.52;50.72;100965.19;5054100;28;45341;-76
2023/06/19 11:00:31;;;;;;;;;10.67;9.00;;;;;26.54;50.56;100958.53;5044385;28;45472;-75
2023/06/19 11:02:57;;;;;;;;;8.67;8.67;;;;;26.54;50.84;100955.81;5048405;28;46039;-75
2023/06/19 11:05:24;;;;;;;;;11.33;11.33;;;;;26.58;50.41;100946.22;5063392;28;45392;-73
2023/06/19 11:07:54;;;;;;;;;13.33;10.00;;;;;26.60;50.50;100950.66;5053626;28;45411;-72
2023/06/19 11:10:22;;;;;;;;;11.00;11.00;;;;;26.62;50.92;100951.28;5051449;28;45447;-71
2023/06/19 11:12:48;;;;;;;;;10.33;10.00;;;;;26.62;50.58;100944.00;5043476;28;46320;-74
2023/06/19 11:15:13;;;;;;;;;12.00;12.00;;;;;26.66;50.87;100945.31;5053678;28;45479;-73
2023/06/19 11:17:39;;;;;;;;;10.00;10.00;;;;;26.69;50.75;100944.09;5053709;28;45595;-74
2023/06/19 11:20:10;;;;;;;;;11.33;11.33;;;;;26.65;50.79;100950.94;5053590;28;45641;-73
2023/06/19 11:22:40;;;;;;;;;9.33;9.33;;;;;26.71;50.39;100944.75;5053711;28;45519;-75
2023/06/19 11:25:07;;;;;;;;;10.00;9.33;;;;;26.69;50.17;100947.66;5053979;28;45514;-76
2023/06/19 11:27:32;;;;;;;;;11.33;10.33;;;;;26.73;50.53;100955.44;5053363;28;45404;-75
2023/06/19 11:29:58;;;;;;;;;8.00;8.00;;;;;26.74;50.48;100951.69;5052230;28;45647;-75
2023/06/19 11:32:30;;;;;;;;;12.00;9.00;;;;;26.75;49.82;100942.50;5054213;28;46253;-74
2023/06/19 11:34:56;;;;;;;;;10.33;8.67;;;;;26.73;50.00;100945.38;5052969;28;45419;-75
2023/06/19 11:37:22;;;;;;;;;9.00;9.00;;;;;26.76;49.88;100936.84;5053292;28;45419;-75
2023/06/19 11:39:49;;;;;;;;;10.67;10.33;;;;;26.78;49.71;100940.25;5053203;28;45959;-74
2023/06/19 11:42:17;;;;;;;;;10.67;9.00;;;;;26.79;49.80;100938.38;5053389;28;45476;-74
2023/06/19 11:45:03;;;;;;;;;8.67;8.67;;;;;26.81;49.95;100936.31;5053259;28;45455;-76
2023/06/19 11:47:32;;;;;;;;;9.00;9.00;;;;;26.81;49.58;100937.16;5053461;28;45553;-74
2023/06/19 11:49:58;;;;;;;;;9.33;9.33;;;;;26.82;49.54;100933.38;5053586;28;45534;-75
2023/06/19 11:52:23;;;;;;;;;11.33;10.33;;;;;26.82;49.84;100933.38;5044699;28;46170;-73
2023/06/19 11:54:49;;;;;;;;;8.33;8.33;;;;;26.83;49.98;100934.25;5056815;28;45501;-73
2023/06/19 11:57:14;;;;;;;;;10.67;10.67;;;;;26.83;49.94;100935.09;5051845;28;49288;-73
2023/06/19 11:59:40;;;;;;;;;13.00;12.67;;;;;26.82;49.75;100927.94;5055589;28;45413;-73
2023/06/19 12:02:06;;;;;;;;;11.33;10.00;;;;;26.85;49.49;100929.44;5034011;28;46290;-73
2023/06/19 12:04:31;;;;;;;;;10.33;9.33;;;;;26.84;49.55;100922.31;5053443;28;45400;-73
2023/06/19 12:06:57;;;;;;;;;9.67;9.67;;;;;26.86;49.36;100924.84;5048160;28;46033;-74
2023/06/19 12:09:22;;;;;;;;;11.00;10.00;;;;;26.87;49.80;100923.81;5052161;28;45322;-72
2023/06/19 12:11:48;;;;;;;;;11.00;11.00;;;;;26.86;50.17;100923.00;5048794;28;46109;-71
2023/06/19 12:14:13;;;;;;;;;7.00;7.00;;;;;26.89;49.45;100927.22;5030717;28;49307;-73
2023/06/19 12:16:38;;;;;;;;;10.33;10.33;;;;;26.90;50.10;100921.59;5047318;28;45559;-73
2023/06/19 12:19:04;;;;;;;;;9.00;9.00;;;;;26.90;50.13;100920.72;5050480;28;45531;-73
2023/06/19 12:21:29;;;;;;;;;11.33;11.00;;;;;26.89;50.11;100917.16;5046873;28;45590;-73
2023/06/19 12:23:55;;;;;;;;;7.00;7.00;;;;;26.89;50.11;100919.88;5053485;28;45471;-73
2023/06/19 12:26:20;;;;;;;;;10.67;10.00;;;;;26.88;49.78;100915.47;5045403;28;45352;-74
2023/06/19 12:28:46;;;;;;;;;9.33;8.67;;;;;26.89;50.11;100919.88;5051298;28;45539;-73
2023/06/19 12:31:11;;;;;;;;;10.33;9.33;;;;;26.88;50.49;100911.88;5060126;28;45924;-74
2023/06/19 12:33:42;;;;;;;;;9.00;9.00;;;;;26.88;50.35;100901.84;5052646;28;45447;-73
2023/06/19 12:36:08;;;;;;;;;9.33;9.33;;;;;26.88;50.56;100901.84;5053672;28;45600;-73
2023/06/19 12:38:36;;;;;;;;;8.33;7.33;;;;;26.87;50.34;100894.72;5055649;28;45445;-74
2023/06/19 12:41:01;;;;;;;;;11.00;10.00;;;;;26.88;50.26;100890.09;5053415;28;45505;-74
2023/06/19 12:43:26;;;;;;;;;8.00;8.00;;;;;26.86;49.84;100890.31;5052242;28;49597;-72
2023/06/19 12:45:52;;;;;;;;;9.00;7.33;;;;;26.89;50.18;100895.38;5032128;28;52418;-73
2023/06/19 12:48:17;;;;;;;;;9.67;9.67;;;;;26.87;49.94;100893.84;5052466;28;45351;-73
2023/06/19 12:50:42;;;;;;;;;9.00;9.00;;;;;26.87;50.36;100888.41;5052090;28;45533;-74
2023/06/19 12:53:08;;;;;;;;;9.00;9.00;;;;;26.86;49.80;100886.72;5052387;28;45456;-75
2023/06/19 12:55:33;;;;;;;;;10.00;10.00;;;;;26.89;50.56;100889.09;5052690;28;45585;-74
2023/06/19 12:57:58;;;;;;;;;11.33;10.00;;;;;26.85;51.07;100883.16;5051267;28;45445;-74
2023/06/19 13:00:24;;;;;;;;;12.00;12.00;;;;;26.85;52.00;100883.16;5052594;28;47116;-74
2023/06/19 13:02:49;;;;;;;;;11.33;11.33;;;;;26.75;53.18;100867.09;5063662;28;45357;-73
2023/06/19 13:05:14;;;;;;;;;10.33;10.00;;;;;26.79;53.65;100884.78;5052201;28;45833;-76
2023/06/19 13:07:39;;;;;;;;;9.67;9.67;;;;;26.78;53.37;100885.81;5051584;28;45355;-74
2023/06/19 13:10:06;;;;;;;;;10.67;10.67;;;;;26.76;53.72;100890.56;5052747;28;45520;-73
2023/06/19 13:12:31;;;;;;;;;14.67;13.00;;;;;26.72;53.08;100882.97;5055649;28;45488;-74
2023/06/19 13:14:56;;;;;;;;;12.00;11.00;;;;;26.73;53.41;100890.09;5046965;28;45457;-73
2023/06/19 13:17:22;;;;;;;;;15.33;13.00;;;;;26.72;53.07;100891.97;5055389;28;51382;-73
2023/06/19 13:19:47;;;;;;;;;13.67;11.33;;;;;26.71;53.65;100884.84;5055537;28;45375;-73
2023/06/19 13:22:12;;;;;;;;;13.33;12.00;;;;;26.69;53.47;100881.47;5055768;28;45599;-74
2023/06/19 13:24:38;;;;;;;;;15.00;13.33;;;;;26.72;53.30;100897.41;5056258;28;45460;-73
2023/06/19 13:27:03;;;;;;;;;14.33;13.00;;;;;26.72;53.50;100888.44;5051175;28;45274;-76
2023/06/19 13:29:29;;;;;;;;;12.33;11.00;;;;;26.70;53.71;100891.34;5050714;28;45522;-76
2023/06/19 13:31:54;;;;;;;;;13.00;13.00;;;;;26.69;54.03;100892.38;5057609;28;45779;-75
2023/06/19 13:34:21;;;;;;;;;11.33;11.33;;;;;26.69;53.52;100889.66;5061594;28;45593;-75
2023/06/19 13:36:47;;;;;;;;;11.00;11.00;;;;;26.70;53.41;100896.78;5043419;28;45495;-76
2023/06/19 13:39:12;;;;;;;;;13.33;11.00;;;;;26.70;54.03;100891.34;5054624;28;45765;-75
2023/06/19 13:41:38;;;;;;;;;12.67;12.67;;;;;26.72;54.14;100886.53;5055932;28;45523;-74
2023/06/19 13:44:03;;;;;;;;;12.33;12.33;;;;;26.73;53.90;100874.59;5052977;28;45486;-74
2023/06/19 13:46:31;;;;;;;;;13.00;11.00;;;;;26.74;53.34;100867.28;5038340;28;45569;-74
2023/06/19 13:48:57;;;;;;;;;12.00;12.00;;;;;26.73;53.51;100869.16;5056784;28;47055;-73
2023/06/19 13:51:22;;;;;;;;;11.00;11.00;;;;;26.69;53.51;100865.97;5058518;28;45454;-73
2023/06/19 13:53:48;;;;;;;;;15.67;12.00;;;;;26.72;53.29;100870.19;5051793;28;45542;-73
2023/06/19 13:56:15;;;;;;;;;8.00;8.00;;;;;26.70;52.71;100854.03;5039694;28;45491;-73
2023/06/19 13:58:40;;;;;;;;;8.33;8.33;;;;;26.71;52.63;100863.06;5045948;28;45441;-72
2023/06/19 14:01:06;;;;;;;;;10.00;10.00;;;;;26.63;53.16;100844.09;5044938;28;45975;-72
2023/06/19 14:03:31;;;;;;;;;9.00;9.00;;;;;26.71;53.09;100860.34;5036900;28;45811;-73
2023/06/19 14:05:56;;;;;;;;;7.00;7.00;;;;;26.69;52.92;100851.53;5043842;28;45765;-71
2023/06/19 14:08:22;;;;;;;;;10.00;8.00;;;;;26.72;53.05;100858.47;5050072;28;46183;-73
2023/06/19 14:10:47;;;;;;;;;7.67;7.67;;;;;26.70;52.15;100856.75;5042561;28;46029;-72
2023/06/19 14:13:12;;;;;;;;;8.33;8.33;;;;;26.72;52.12;100853.03;5054318;28;45585;-72
2023/06/19 14:15:38;;;;;;;;;9.00;9.00;;;;;26.69;52.74;100844.19;5054595;28;56568;-72
2023/06/19 14:18:03;;;;;;;;;8.33;8.33;;;;;26.66;52.21;100843.72;5054757;28;45411;-73
2023/06/19 14:20:28;;;;;;;;;7.33;7.33;;;;;26.73;51.98;100847.38;5035328;28;45909;-74
2023/06/19 14:22:54;;;;;;;;;8.33;7.33;;;;;26.73;52.02;100847.38;5054537;28;45942;-73
2023/06/19 14:25:19;;;;;;;;;9.00;9.00;;;;;26.74;52.04;100843.66;5052773;28;56512;-72
2023/06/19 14:27:44;;;;;;;;;7.33;7.00;;;;;26.73;52.42;100849.28;5055939;28;45657;-72
2023/06/19 14:30:10;;;;;;;;;8.00;8.00;;;;;26.69;52.32;100846.91;5055741;28;45705;-72
2023/06/19 14:32:38;;;;;;;;;8.00;8.00;;;;;26.73;51.80;100857.44;5054051;28;45733;-72
2023/06/19 14:35:05;;;;;;;;;7.33;7.33;;;;;26.73;51.97;100852.00;5066711;28;45424;-72
2023/06/19 14:37:30;;;;;;;;;7.33;7.00;;;;;26.72;52.52;100850.31;5051016;28;46313;-71
2023/06/19 14:39:56;;;;;;;;;9.00;9.00;;;;;26.74;52.25;100843.66;5051675;28;45537;-71
2023/06/19 14:42:22;;;;;;;;;8.33;8.33;;;;;26.74;52.21;100843.66;5046204;28;45513;-71
2023/06/19 14:44:47;;;;;;;;;8.33;7.67;;;;;26.76;51.84;100841.56;5052206;28;45496;-72
2023/06/19 14:47:12;;;;;;;;;5.67;5.00;;;;;26.77;51.98;100836.97;5049419;28;61177;-73
2023/06/19 14:49:38;;;;;;;;;8.00;8.00;;;;;26.78;52.17;100833.22;5051492;28;45687;-72
2023/06/19 14:52:04;;;;;;;;;6.00;6.00;;;;;26.79;51.68;100829.44;5050999;28;45470;-72
2023/06/19 14:54:29;;;;;;;;;8.33;8.33;;;;;26.70;51.97;100812.38;5052009;28;45532;-73
2023/06/19 14:56:54;;;;;;;;;6.33;4.00;;;;;26.73;51.50;100819.31;5052253;28;47697;-72
2023/06/19 14:59:20;;;;;;;;;8.33;8.33;;;;;26.78;51.62;100819.59;5040951;28;45606;-72
2023/06/19 15:01:45;;;;;;;;;7.00;7.00;;;;;26.77;52.05;100829.63;5039273;28;45429;-72
2023/06/19 15:04:10;;;;;;;;;8.00;7.00;;;;;26.76;51.79;100827.13;5052651;28;45900;-73
2023/06/19 15:06:36;;;;;;;;;7.33;7.33;;;;;26.78;51.98;100833.22;5048745;28;45715;-75
2023/06/19 15:09:01;;;;;;;;;7.33;6.67;;;;;26.79;51.99;100834.91;5044104;28;45602;-77
2023/06/19 15:11:26;;;;;;;;;6.67;6.67;;;;;26.78;51.84;100828.63;5045996;28;45820;-75
2023/06/19 15:13:52;;;;;;;;;7.33;7.33;;;;;26.80;51.97;100837.44;5053825;28;45728;-76
2023/06/19 15:16:19;;;;;;;;;7.33;6.33;;;;;26.86;51.72;100840.44;5031742;28;56721;-75
2023/06/19 15:18:45;;;;;;;;;6.33;6.33;;;;;26.86;52.20;100833.13;5050729;28;45570;-76
2023/06/19 15:21:10;;;;;;;;;7.33;7.33;;;;;26.87;52.05;100826.63;5035095;28;45555;-78
2023/06/19 15:23:39;;;;;;;;;5.33;5.00;;;;;26.83;51.76;100815.28;5025793;28;45842;-76
2023/06/19 15:26:05;;;;;;;;;4.67;4.67;;;;;26.88;52.22;100822.03;5050219;28;54330;-77
2023/06/19 15:28:32;;;;;;;;;6.00;5.00;;;;;26.87;51.71;100823.06;5047239;28;46039;-78
2023/06/19 15:30:58;;;;;;;;;6.67;6.67;;;;;26.88;51.81;100817.44;5043331;28;45688;-78
2023/06/19 15:33:23;;;;;;;;;6.00;6.00;;;;;26.86;52.05;100815.94;5046162;28;45360;-77
2023/06/19 15:35:49;;;;;;;;;5.00;5.00;;;;;26.89;51.93;100810.13;5046628;28;46739;-77
2023/06/19 15:38:15;;;;;;;;;4.67;4.67;;;;;26.88;52.40;100803.81;5044297;28;45786;-76
2023/06/19 15:40:40;;;;;;;;;8.00;6.00;;;;;26.88;52.31;100795.66;5049113;28;45488;-76
2023/06/19 15:43:05;;;;;;;;;5.67;5.67;;;;;26.88;52.30;100787.47;5045454;28;54740;-78
2023/06/19 15:45:31;;;;;;;;;4.00;4.00;;;;;26.91;52.46;100781.66;5045012;28;46019;-79
2023/06/19 15:47:56;;;;;;;;;7.33;7.33;;;;;26.94;52.66;100784.00;5054092;28;45440;-74
2023/06/19 15:50:21;;;;;;;;;10.00;8.33;;;;;26.96;52.66;100776.50;5047031;28;45535;-73
2023/06/19 15:52:46;;;;;;;;;10.00;10.00;;;;;26.97;53.65;100774.63;5025078;28;45741;-75
2023/06/19 15:55:13;;;;;;;;;11.67;11.67;;;;;26.98;53.28;100764.56;5031209;28;48824;-73
2023/06/19 15:57:38;;;;;;;;;9.00;9.00;;;;;26.99;51.94;100766.25;5046050;28;45535;-73
2023/06/19 16:00:05;;;;;;;;;11.00;10.33;;;;;26.98;51.91;100768.16;5051276;28;45747;-73